Time;durP1;ratioP1;P1;durP2;ratioP2;P2;SDS_P1;SDS_P2;PMS_P1;PMS_P2;Temp;Humidity;BMP_temperature;BMP_pressure;BME280_temperature;BME280_humidity;BME280_pressure;Samples;Min_cycle;Max_cycle;Signal;HPM_P1;HPM_P2
2020/12/04 00:01:06;0.00;0.00;0.62;0.00;0.00;0.62;1.50;1.37;;;19.40;27.10;;;;;;2250161;61;20597;-61
2020/12/04 00:03:51;0.00;0.00;0.62;0.00;0.00;0.62;1.43;1.23;;;19.40;27.60;;;;;;2249404;61;20537;-61
2020/12/04 00:06:36;0.00;0.00;0.62;0.00;0.00;0.62;1.70;1.50;;;19.40;27.10;;;;;;2250316;61;20388;-61
2020/12/04 00:09:21;0.00;0.00;0.62;0.00;0.00;0.62;1.90;1.33;;;19.40;27.10;;;;;;2249786;61;20370;-61
2020/12/04 00:12:05;0.00;0.00;0.62;0.00;0.00;0.62;2.30;2.00;;;19.40;27.20;;;;;;2249956;61;20361;-61
2020/12/04 00:14:50;0.00;0.00;0.62;0.00;0.00;0.62;2.00;1.80;;;19.40;27.20;;;;;;2249791;61;20369;-61
2020/12/04 00:17:35;0.00;0.00;0.62;0.00;0.00;0.62;2.03;1.67;;;19.50;27.20;;;;;;2249378;61;20396;-62
2020/12/04 00:20:20;0.00;0.00;0.62;0.00;0.00;0.62;2.17;1.37;;;19.40;27.20;;;;;;2249496;61;20365;-62
2020/12/04 00:23:05;0.00;0.00;0.62;0.00;0.00;0.62;1.50;1.30;;;19.40;27.20;;;;;;2250040;61;20400;-61
2020/12/04 00:25:50;0.00;0.00;0.62;0.00;0.00;0.62;2.17;1.33;;;19.40;27.20;;;;;;2249737;61;20440;-61
2020/12/04 00:28:34;0.00;0.00;0.62;0.00;0.00;0.62;2.17;1.60;;;19.50;27.30;;;;;;2250188;61;20364;-61
2020/12/04 00:31:19;0.00;0.00;0.62;0.00;0.00;0.62;2.40;1.60;;;19.50;27.30;;;;;;2249520;61;20736;-61
2020/12/04 00:34:04;0.00;0.00;0.62;0.00;0.00;0.62;1.60;1.50;;;19.50;27.20;;;;;;2249277;61;20385;-61
2020/12/04 00:36:49;0.00;0.00;0.62;0.00;0.00;0.62;2.10;1.73;;;19.50;27.30;;;;;;2249814;61;20530;-61
2020/12/04 00:39:35;0.00;0.00;0.62;0.00;0.00;0.62;1.90;1.70;;;19.50;27.30;;;;;;2249952;61;20416;-61
2020/12/04 00:42:19;0.00;0.00;0.62;0.00;0.00;0.62;1.60;1.43;;;19.50;27.30;;;;;;2249857;61;20365;-61
2020/12/04 00:45:04;0.00;0.00;0.62;0.00;0.00;0.62;1.70;1.10;;;19.50;27.30;;;;;;2249979;61;20440;-61
2020/12/04 00:47:48;0.00;0.00;0.62;0.00;0.00;0.62;1.90;1.50;;;19.50;27.30;;;;;;2249997;61;20400;-61
2020/12/04 00:50:33;0.00;0.00;0.62;0.00;0.00;0.62;1.30;1.03;;;19.50;27.30;;;;;;2246865;61;20364;-61
2020/12/04 00:53:20;0.00;0.00;0.62;0.00;0.00;0.62;4.07;1.53;;;19.50;27.30;;;;;;2249960;61;20405;-61
2020/12/04 00:56:06;0.00;0.00;0.62;0.00;0.00;0.62;1.60;1.30;;;19.50;27.30;;;;;;2246710;61;20683;-62
2020/12/04 00:58:55;0.00;0.00;0.62;0.00;0.00;0.62;1.70;1.43;;;19.50;27.80;;;;;;2246896;61;20397;-63
2020/12/04 01:01:39;0.00;0.00;0.62;0.00;0.00;0.62;2.37;1.50;;;19.50;27.40;;;;;;2249961;61;20389;-63
2020/12/04 01:04:24;0.00;0.00;0.62;0.00;0.00;0.62;1.57;1.13;;;19.50;27.40;;;;;;2249717;61;20745;-63
2020/12/04 01:07:09;0.00;0.00;0.62;0.00;0.00;0.62;1.43;1.30;;;19.50;27.40;;;;;;2249519;61;20383;-64
2020/12/04 01:09:53;0.00;0.00;0.62;0.00;0.00;0.62;1.30;1.10;;;19.50;27.50;;;;;;2250050;61;20591;-63
2020/12/04 01:12:42;0.00;0.00;0.62;0.00;0.00;0.62;1.70;1.30;;;19.50;27.50;;;;;;2249966;61;20741;-63
2020/12/04 01:15:27;0.00;0.00;0.62;0.00;0.00;0.62;1.30;1.10;;;19.60;27.60;;;;;;2249593;61;20361;-61
2020/12/04 01:18:12;0.00;0.00;0.62;0.00;0.00;0.62;1.77;1.40;;;19.60;27.60;;;;;;2249604;61;20413;-61
2020/12/04 01:20:56;0.00;0.00;0.62;0.00;0.00;0.62;2.77;1.33;;;19.60;27.60;;;;;;2250044;61;20365;-63
2020/12/04 01:23:41;0.00;0.00;0.62;0.00;0.00;0.62;1.87;1.37;;;19.60;27.60;;;;;;2249763;61;20365;-60
2020/12/04 01:26:25;0.00;0.00;0.62;0.00;0.00;0.62;1.67;1.30;;;19.60;27.60;;;;;;2249763;61;20885;-61
2020/12/04 01:29:11;0.00;0.00;0.62;0.00;0.00;0.62;1.87;1.33;;;19.70;28.20;;;;;;2249881;61;20450;-63
2020/12/04 01:31:56;0.00;0.00;0.62;0.00;0.00;0.62;1.30;1.17;;;19.70;27.60;;;;;;2249595;61;20373;-62
2020/12/04 01:34:40;0.00;0.00;0.62;0.00;0.00;0.62;1.70;1.37;;;19.70;27.60;;;;;;2246381;61;20369;-61
2020/12/04 01:37:25;0.00;0.00;0.62;0.00;0.00;0.62;1.97;1.63;;;19.70;27.60;;;;;;2249813;61;20624;-61
2020/12/04 01:40:10;0.00;0.00;0.62;0.00;0.00;0.62;1.70;1.57;;;19.70;27.60;;;;;;2249579;61;20412;-62
2020/12/04 01:42:54;0.00;0.00;0.62;0.00;0.00;0.62;1.77;1.37;;;19.70;27.60;;;;;;2249810;61;20412;-62
2020/12/04 01:45:40;0.00;0.00;0.62;0.00;0.00;0.62;1.93;1.43;;;19.70;27.60;;;;;;2249380;61;20369;-63
2020/12/04 01:48:25;0.00;0.00;0.62;0.00;0.00;0.62;1.93;1.47;;;19.70;27.50;;;;;;2249356;61;20500;-62
2020/12/04 01:51:10;0.00;0.00;0.62;0.00;0.00;0.62;1.93;1.50;;;19.70;27.50;;;;;;2249937;61;20408;-61
2020/12/04 01:53:55;0.00;0.00;0.62;0.00;0.00;0.62;2.50;1.50;;;19.70;27.50;;;;;;2249873;61;20432;-61
2020/12/04 01:56:40;0.00;0.00;0.62;0.00;0.00;0.62;1.73;1.40;;;19.70;28.00;;;;;;2249652;61;20431;-61
2020/12/04 01:59:25;0.00;0.00;0.62;0.00;0.00;0.62;2.17;1.43;;;19.70;27.50;;;;;;2250032;61;20599;-61
2020/12/04 02:02:20;0.00;0.00;0.62;0.00;0.00;0.62;2.20;1.37;;;19.70;27.40;;;;;;2249655;61;20753;-61
2020/12/04 02:05:05;0.00;0.00;0.62;0.00;0.00;0.62;2.83;1.67;;;19.70;27.40;;;;;;2249811;61;20370;-61
2020/12/04 02:07:58;0.00;0.00;0.62;0.00;0.00;0.62;2.23;1.97;;;19.70;27.40;;;;;;2249828;61;20377;-61
2020/12/04 02:10:51;0.00;0.00;0.62;0.00;0.00;0.62;1.70;1.40;;;19.70;27.30;;;;;;2249686;61;20712;-61
2020/12/04 02:13:38;0.00;0.00;0.62;0.00;0.00;0.62;3.20;2.27;;;19.70;27.20;;;;;;2249704;61;20428;-60
2020/12/04 02:16:23;0.00;0.00;0.62;0.00;0.00;0.62;3.13;2.63;;;19.70;27.10;;;;;;2249734;61;20381;-61
2020/12/04 02:19:09;0.00;0.00;0.62;0.00;0.00;0.62;4.07;3.20;;;19.70;26.70;;;;;;2249552;61;20747;-61
2020/12/04 02:21:55;0.00;0.00;0.62;0.00;0.00;0.62;4.97;3.20;;;19.70;26.40;;;;;;2249873;61;20369;-61
2020/12/04 02:24:40;0.00;0.00;0.62;0.00;0.00;0.62;4.77;3.80;;;19.70;26.40;;;;;;2249456;61;20568;-61
2020/12/04 02:27:25;0.00;0.00;0.62;0.00;0.00;0.62;3.80;2.90;;;19.60;26.10;;;;;;2249867;61;20635;-60
2020/12/04 02:30:12;0.00;0.00;0.62;0.00;0.00;0.62;4.37;3.57;;;19.60;26.00;;;;;;2246681;61;20365;-61
2020/12/04 02:32:57;0.00;0.00;0.62;0.00;0.00;0.62;4.50;3.30;;;19.60;25.90;;;;;;2249520;61;20453;-61
2020/12/04 02:35:42;0.00;0.00;0.62;0.00;0.00;0.62;4.70;3.50;;;19.50;25.90;;;;;;2249792;61;20361;-60
2020/12/04 02:38:27;0.00;0.00;0.62;0.00;0.00;0.62;5.40;4.63;;;19.50;25.80;;;;;;2249783;61;20393;-61
2020/12/04 02:41:13;0.00;0.00;0.62;0.00;0.00;0.62;5.60;4.37;;;19.40;25.50;;;;;;2246438;61;20368;-60
2020/12/04 02:43:58;0.00;0.00;0.62;0.00;0.00;0.62;5.40;4.50;;;19.40;25.60;;;;;;2249628;61;20403;-61
2020/12/04 02:46:47;0.00;0.00;0.62;0.00;0.00;0.62;4.63;3.47;;;19.40;25.60;;;;;;2249460;61;20385;-61
2020/12/04 02:49:31;0.00;0.00;0.62;0.00;0.00;0.62;4.10;3.70;;;19.30;25.50;;;;;;2249919;61;20353;-61
2020/12/04 02:52:21;0.00;0.00;0.62;0.00;0.00;0.62;5.20;4.00;;;19.30;25.50;;;;;;2249808;61;20625;-61
2020/12/04 02:55:06;0.00;0.00;0.62;0.00;0.00;0.62;5.80;4.30;;;19.20;25.30;;;;;;2249651;61;20365;-60
2020/12/04 02:57:51;0.00;0.00;0.62;0.00;0.00;0.62;3.70;3.13;;;19.20;25.40;;;;;;2249867;61;20477;-61
2020/12/04 03:00:36;0.00;0.00;0.62;0.00;0.00;0.62;5.17;4.17;;;19.20;25.70;;;;;;2249774;61;20407;-60
2020/12/04 03:03:21;0.00;0.00;0.62;0.00;0.00;0.62;5.00;3.53;;;19.20;25.80;;;;;;2249315;61;20433;-61
2020/12/04 03:06:05;0.00;0.00;0.62;0.00;0.00;0.62;6.13;4.07;;;19.10;25.80;;;;;;2249294;61;20388;-60
2020/12/04 03:08:51;0.00;0.00;0.62;0.00;0.00;0.62;4.40;4.00;;;19.10;26.00;;;;;;2249469;61;20750;-61
2020/12/04 03:11:37;0.00;0.00;0.62;0.00;0.00;0.62;3.90;3.37;;;19.10;26.00;;;;;;2249779;61;20477;-60
2020/12/04 03:14:21;0.00;0.00;0.62;0.00;0.00;0.62;4.40;3.87;;;19.10;26.00;;;;;;2249597;61;20485;-60
2020/12/04 03:17:06;0.00;0.00;0.62;0.00;0.00;0.62;4.83;3.93;;;19.10;26.00;;;;;;2249378;61;20381;-60
2020/12/04 03:19:51;0.00;0.00;0.62;0.00;0.00;0.62;3.73;3.33;;;19.10;26.00;;;;;;2249649;61;20583;-61
2020/12/04 03:22:36;0.00;0.00;0.62;0.00;0.00;0.62;4.40;3.93;;;19.00;26.40;;;;;;2249588;61;20404;-60
2020/12/04 03:25:20;0.00;0.00;0.62;0.00;0.00;0.62;4.60;3.60;;;19.00;25.90;;;;;;2249522;61;20361;-62
2020/12/04 03:28:06;0.00;0.00;0.62;0.00;0.00;0.62;5.00;3.53;;;19.00;25.90;;;;;;2249506;61;20506;-61
2020/12/04 03:30:50;0.00;0.00;0.62;0.00;0.00;0.62;4.77;3.50;;;19.00;25.90;;;;;;2249342;61;20373;-61
2020/12/04 03:33:35;0.00;0.00;0.62;0.00;0.00;0.62;5.00;3.60;;;19.00;26.50;;;;;;2249634;61;20717;-61
2020/12/04 03:36:19;0.00;0.00;0.62;0.00;0.00;0.62;4.50;3.73;;;19.00;25.90;;;;;;2249634;61;20389;-60
2020/12/04 03:39:04;0.00;0.00;0.62;0.00;0.00;0.62;4.87;4.07;;;19.00;25.90;;;;;;2249293;61;20392;-61
2020/12/04 03:41:49;0.00;0.00;0.62;0.00;0.00;0.62;4.30;3.90;;;19.00;25.90;;;;;;2249639;61;20612;-60
2020/12/04 03:44:34;0.00;0.00;0.62;0.00;0.00;0.62;6.90;4.53;;;19.00;25.90;;;;;;2249697;61;20477;-60
2020/12/04 03:47:19;0.00;0.00;0.62;0.00;0.00;0.62;5.57;4.40;;;19.00;25.90;;;;;;2249358;61;20468;-61
2020/12/04 03:50:03;0.00;0.00;0.62;0.00;0.00;0.62;5.20;3.90;;;18.90;26.40;;;;;;2249492;61;20344;-61
2020/12/04 03:52:48;0.00;0.00;0.62;0.00;0.00;0.62;5.50;4.80;;;18.90;25.80;;;;;;2249638;61;20386;-61
2020/12/04 03:55:33;0.00;0.00;0.62;0.00;0.00;0.62;5.10;4.37;;;18.90;25.70;;;;;;2249664;61;20382;-60
2020/12/04 03:58:18;0.00;0.00;0.62;0.00;0.00;0.62;6.80;5.27;;;18.90;25.60;;;;;;2249568;61;20821;-60
2020/12/04 04:01:03;0.00;0.00;0.62;0.00;0.00;0.62;5.10;4.60;;;18.90;25.50;;;;;;2249387;61;20718;-61
2020/12/04 04:03:47;0.00;0.00;0.62;0.00;0.00;0.62;5.93;4.60;;;18.80;25.50;;;;;;2249495;61;20365;-61
2020/12/04 04:06:32;0.00;0.00;0.62;0.00;0.00;0.62;4.83;4.30;;;18.80;25.50;;;;;;2249598;61;20748;-60
2020/12/04 04:09:16;0.00;0.00;0.62;0.00;0.00;0.62;5.33;4.47;;;18.80;25.50;;;;;;2249373;61;20361;-61
2020/12/04 04:12:01;0.00;0.00;0.62;0.00;0.00;0.62;6.10;5.17;;;18.80;25.40;;;;;;2249479;61;20752;-61
2020/12/04 04:14:46;0.00;0.00;0.62;0.00;0.00;0.62;5.73;4.90;;;18.70;25.80;;;;;;2249436;61;20364;-61
2020/12/04 04:17:31;0.00;0.00;0.62;0.00;0.00;0.62;7.97;5.63;;;18.70;25.20;;;;;;2248846;61;20404;-61
2020/12/04 04:20:16;0.00;0.00;0.62;0.00;0.00;0.62;6.00;5.00;;;18.70;25.20;;;;;;2249574;61;20700;-60
2020/12/04 04:23:01;0.00;0.00;0.62;0.00;0.00;0.62;5.70;4.90;;;18.70;25.30;;;;;;2249167;61;20365;-61
2020/12/04 04:25:46;0.00;0.00;0.62;0.00;0.00;0.62;7.40;5.50;;;18.60;25.30;;;;;;2246386;61;20582;-60
2020/12/04 04:28:31;0.00;0.00;0.62;0.00;0.00;0.62;5.03;4.53;;;18.60;25.30;;;;;;2249570;61;20576;-60
2020/12/04 04:31:16;0.00;0.00;0.62;0.00;0.00;0.62;7.07;5.60;;;18.60;25.40;;;;;;2249209;61;20385;-61
2020/12/04 04:34:01;0.00;0.00;0.62;0.00;0.00;0.62;6.17;4.97;;;18.60;25.30;;;;;;2246217;61;20435;-61
2020/12/04 04:36:46;0.00;0.00;0.62;0.00;0.00;0.62;5.43;4.17;;;18.60;25.40;;;;;;2249555;61;20505;-61
2020/12/04 04:39:31;0.00;0.00;0.62;0.00;0.00;0.62;7.17;5.37;;;18.50;25.40;;;;;;2249266;61;20393;-61
2020/12/04 04:42:17;0.00;0.00;0.62;0.00;0.00;0.62;5.17;4.43;;;18.50;25.50;;;;;;2250137;61;20369;-61
2020/12/04 04:45:03;0.00;0.00;0.62;0.00;0.00;0.62;8.33;4.27;;;18.50;25.50;;;;;;2249795;61;20372;-61
2020/12/04 04:47:49;0.00;0.00;0.62;0.00;0.00;0.62;5.67;4.37;;;18.50;25.50;;;;;;2249998;61;20376;-61
2020/12/04 04:50:35;0.00;0.00;0.62;0.00;0.00;0.62;6.10;4.70;;;18.50;25.50;;;;;;2250099;61;20369;-61
2020/12/04 04:53:21;0.00;0.00;0.62;0.00;0.00;0.62;5.00;4.27;;;18.50;25.50;;;;;;2249393;61;20361;-61
2020/12/04 04:56:06;0.00;0.00;0.62;0.00;0.00;0.62;5.83;4.50;;;18.50;25.50;;;;;;2250055;61;20453;-61
2020/12/04 04:58:51;0.00;0.00;0.62;0.00;0.00;0.62;6.90;5.73;;;18.50;25.50;;;;;;2250198;61;20420;-61
2020/12/04 05:01:36;0.00;0.00;0.62;0.00;0.00;0.62;4.93;4.43;;;18.50;25.50;;;;;;2249804;61;20586;-61
2020/12/04 05:04:21;0.00;0.00;0.62;0.00;0.00;0.62;6.00;4.40;;;18.50;25.50;;;;;;2250068;61;20455;-61
2020/12/04 05:07:09;0.00;0.00;0.62;0.00;0.00;0.62;5.70;5.10;;;18.50;25.50;;;;;;2249354;61;20426;-60
2020/12/04 05:10:07;0.00;0.00;0.62;0.00;0.00;0.62;5.63;4.80;;;18.50;25.50;;;;;;2250025;61;20232;-60
2020/12/04 05:13:00;0.00;0.00;0.62;0.00;0.00;0.62;6.00;5.40;;;18.50;25.50;;;;;;2249970;61;20401;-61
2020/12/04 05:15:45;0.00;0.00;0.62;0.00;0.00;0.62;6.23;5.10;;;18.50;26.10;;;;;;2249712;61;20511;-61
2020/12/04 05:18:30;0.00;0.00;0.62;0.00;0.00;0.62;5.37;4.00;;;18.50;25.50;;;;;;2249959;61;20817;-61
2020/12/04 05:21:15;0.00;0.00;0.62;0.00;0.00;0.62;7.23;5.13;;;18.50;26.10;;;;;;2250018;61;20397;-61
2020/12/04 05:24:00;0.00;0.00;0.62;0.00;0.00;0.62;6.37;4.60;;;18.50;25.50;;;;;;2249699;61;20361;-60
2020/12/04 05:26:45;0.00;0.00;0.62;0.00;0.00;0.62;5.53;4.93;;;18.50;25.50;;;;;;2249639;61;20633;-61
2020/12/04 05:29:37;0.00;0.00;0.62;0.00;0.00;0.62;5.73;5.07;;;18.50;25.50;;;;;;2249675;61;20361;-60
2020/12/04 05:32:23;0.00;0.00;0.62;0.00;0.00;0.62;8.70;5.23;;;18.40;25.40;;;;;;2250055;61;20389;-60
2020/12/04 05:35:09;0.00;0.00;0.62;0.00;0.00;0.62;7.33;5.33;;;18.40;25.50;;;;;;2250022;61;20413;-61
2020/12/04 05:38:11;0.00;0.00;0.62;0.00;0.00;0.62;6.07;5.00;;;18.40;25.50;;;;;;2249584;61;20768;-61
2020/12/04 05:41:05;0.00;0.00;0.62;0.00;0.00;0.62;6.10;4.70;;;18.40;25.40;;;;;;2250080;61;20460;-61
2020/12/04 05:43:53;0.00;0.00;0.62;0.00;0.00;0.62;5.83;5.30;;;18.40;25.40;;;;;;2249888;61;20366;-60
2020/12/04 05:46:38;0.00;0.00;0.62;0.00;0.00;0.62;6.70;4.87;;;18.30;25.30;;;;;;2249964;61;20810;-60
2020/12/04 05:49:22;0.00;0.00;0.62;0.00;0.00;0.62;6.30;5.53;;;18.30;25.40;;;;;;2250143;61;20357;-60
2020/12/04 05:52:07;0.00;0.00;0.62;0.00;0.00;0.62;7.03;5.10;;;18.30;25.40;;;;;;2249414;61;20449;-61
2020/12/04 05:54:53;0.00;0.00;0.62;0.00;0.00;0.62;6.40;5.53;;;18.30;25.40;;;;;;2249953;61;20349;-61
2020/12/04 05:57:47;0.00;0.00;0.62;0.00;0.00;0.62;5.67;4.70;;;18.30;25.40;;;;;;2249934;61;20436;-60
2020/12/04 06:00:33;0.00;0.00;0.62;0.00;0.00;0.62;9.97;6.10;;;18.20;25.20;;;;;;2249699;61;20365;-61
2020/12/04 06:03:18;0.00;0.00;0.62;0.00;0.00;0.62;6.60;5.77;;;18.20;25.20;;;;;;2249797;61;20404;-61
2020/12/04 06:06:07;0.00;0.00;0.62;0.00;0.00;0.62;7.60;5.43;;;18.20;25.10;;;;;;2249850;61;20712;-61
2020/12/04 06:08:53;0.00;0.00;0.62;0.00;0.00;0.62;5.90;5.03;;;18.20;25.10;;;;;;2250163;61;20397;-61
2020/12/04 06:11:42;0.00;0.00;0.62;0.00;0.00;0.62;8.00;7.00;;;18.10;25.10;;;;;;2249859;61;20430;-61
2020/12/04 06:14:28;0.00;0.00;0.62;0.00;0.00;0.62;6.63;5.37;;;18.20;25.20;;;;;;2249507;61;20409;-60
2020/12/04 06:17:13;0.00;0.00;0.62;0.00;0.00;0.62;6.47;5.23;;;18.10;25.80;;;;;;2249906;61;20604;-60
2020/12/04 06:19:58;0.00;0.00;0.62;0.00;0.00;0.62;10.90;6.80;;;18.10;25.20;;;;;;2249805;61;20714;-61
2020/12/04 06:23:07;0.00;0.00;0.62;0.00;0.00;0.62;6.30;5.20;;;18.10;25.30;;;;;;2249579;61;20353;-60
2020/12/04 06:26:10;0.00;0.00;0.62;0.00;0.00;0.62;5.97;5.20;;;18.10;25.30;;;;;;2249734;61;20713;-61
2020/12/04 06:28:56;0.00;0.00;0.62;0.00;0.00;0.62;7.27;6.17;;;18.10;25.30;;;;;;2249736;61;20357;-60
2020/12/04 06:31:42;0.00;0.00;0.62;0.00;0.00;0.62;5.80;4.97;;;18.10;25.30;;;;;;2249821;61;20741;-60
2020/12/04 06:34:28;0.00;0.00;0.62;0.00;0.00;0.62;6.20;5.37;;;18.10;25.30;;;;;;2249672;61;20380;-60
2020/12/04 06:37:34;0.00;0.00;0.62;0.00;0.00;0.62;5.30;4.60;;;18.10;25.30;;;;;;2249528;61;20384;-61
2020/12/04 06:40:29;0.00;0.00;0.62;0.00;0.00;0.62;5.93;4.80;;;18.10;25.80;;;;;;2249713;61;20381;-60
2020/12/04 06:43:35;0.00;0.00;0.62;0.00;0.00;0.62;6.60;4.80;;;18.10;25.30;;;;;;2249431;61;20450;-61
2020/12/04 06:46:42;0.00;0.00;0.62;0.00;0.00;0.62;7.13;5.10;;;18.10;25.30;;;;;;2249775;61;20749;-61
2020/12/04 06:49:38;0.00;0.00;0.62;0.00;0.00;0.62;6.13;4.50;;;18.00;25.20;;;;;;2249711;61;20377;-61
2020/12/04 06:52:23;0.00;0.00;0.62;0.00;0.00;0.62;5.67;4.80;;;18.00;25.20;;;;;;2249513;61;20357;-60
2020/12/04 06:55:08;0.00;0.00;0.62;0.00;0.00;0.62;6.50;5.30;;;18.00;25.20;;;;;;2249600;61;20368;-60
2020/12/04 06:57:59;0.00;0.00;0.62;0.00;0.00;0.62;6.50;4.97;;;18.10;25.80;;;;;;2249645;61;20660;-60
2020/12/04 07:00:43;0.00;0.00;0.62;0.00;0.00;0.62;6.50;4.60;;;18.10;25.30;;;;;;2249763;61;20365;-59
2020/12/04 07:03:29;0.00;0.00;0.62;0.00;0.00;0.62;5.73;4.70;;;18.00;25.20;;;;;;2249753;61;20594;-61
2020/12/04 07:06:21;0.00;0.00;0.62;0.00;0.00;0.62;6.30;4.60;;;18.10;25.30;;;;;;2249519;61;20463;-60
2020/12/04 07:09:06;0.00;0.00;0.62;0.00;0.00;0.62;6.80;4.93;;;18.10;25.40;;;;;;2249780;61;20369;-61
2020/12/04 07:11:51;0.00;0.00;0.62;0.00;0.00;0.62;6.93;5.50;;;18.10;25.40;;;;;;2249712;61;20365;-61
2020/12/04 07:14:35;0.00;0.00;0.62;0.00;0.00;0.62;5.80;4.33;;;18.10;25.40;;;;;;2249377;61;20389;-61
2020/12/04 07:17:22;0.00;0.00;0.62;0.00;0.00;0.62;7.97;5.10;;;18.10;26.00;;;;;;2249544;61;20424;-61
2020/12/04 07:20:08;0.00;0.00;0.62;0.00;0.00;0.62;5.67;4.70;;;18.10;26.00;;;;;;2249240;61;20385;-61
2020/12/04 07:22:53;0.00;0.00;0.62;0.00;0.00;0.62;6.87;5.53;;;18.10;25.50;;;;;;2249599;61;20369;-61
2020/12/04 07:25:38;0.00;0.00;0.62;0.00;0.00;0.62;5.10;4.57;;;18.10;25.50;;;;;;2249695;61;20361;-61
2020/12/04 07:28:22;0.00;0.00;0.62;0.00;0.00;0.62;6.47;5.17;;;18.10;25.50;;;;;;2249397;61;20760;-61
2020/12/04 07:31:15;0.00;0.00;0.62;0.00;0.00;0.62;7.57;4.80;;;18.10;25.50;;;;;;2249640;61;20357;-61
2020/12/04 07:34:02;0.00;0.00;0.62;0.00;0.00;0.62;9.80;7.90;;;18.10;25.30;;;;;;2249580;61;20585;-61
2020/12/04 07:36:54;0.00;0.00;0.62;0.00;0.00;0.62;8.30;5.70;;;18.10;25.30;;;;;;2249320;61;20481;-60
2020/12/04 07:39:41;0.00;0.00;0.62;0.00;0.00;0.62;6.63;5.93;;;18.10;25.30;;;;;;2249618;61;20389;-61
2020/12/04 07:42:27;0.00;0.00;0.62;0.00;0.00;0.62;7.70;6.20;;;18.10;25.30;;;;;;2249400;61;20357;-61
2020/12/04 07:45:18;0.00;0.00;0.62;0.00;0.00;0.62;9.33;7.07;;;18.10;25.30;;;;;;2248824;61;20642;-61
2020/12/04 07:48:08;0.00;0.00;0.62;0.00;0.00;0.62;8.40;7.07;;;18.00;25.20;;;;;;2248993;61;20392;-61
2020/12/04 07:50:53;0.00;0.00;0.62;0.00;0.00;0.62;7.70;6.13;;;18.00;25.00;;;;;;2249186;61;20377;-61
2020/12/04 07:53:38;0.00;0.00;0.62;0.00;0.00;0.62;11.27;7.57;;;18.00;25.00;;;;;;2249554;61;20430;-61
2020/12/04 07:56:26;0.00;0.00;0.62;0.00;0.00;0.62;13.90;7.03;;;18.00;24.90;;;;;;2249581;61;20388;-61
2020/12/04 07:59:13;0.00;0.00;0.62;0.00;0.00;0.62;10.17;8.03;;;17.90;24.80;;;;;;2249332;61;20388;-61
2020/12/04 08:01:59;0.00;0.00;0.62;0.00;0.00;0.62;11.37;7.60;;;17.90;24.80;;;;;;2249508;61;20430;-61
2020/12/04 08:04:44;0.00;0.00;0.62;0.00;0.00;0.62;9.67;7.20;;;17.80;24.80;;;;;;2249310;61;20372;-61
2020/12/04 08:07:30;0.00;0.00;0.62;0.00;0.00;0.62;11.17;8.27;;;17.80;24.80;;;;;;2249697;61;20474;-61
2020/12/04 08:10:20;0.00;0.00;0.62;0.00;0.00;0.62;10.93;9.47;;;17.70;25.00;;;;;;2249520;61;20381;-61
2020/12/04 08:13:05;0.00;0.00;0.62;0.00;0.00;0.62;12.83;9.10;;;17.70;24.90;;;;;;2249186;61;20474;-61
2020/12/04 08:15:49;0.00;0.00;0.62;0.00;0.00;0.62;13.33;9.40;;;17.70;25.00;;;;;;2250070;61;20361;-61
2020/12/04 08:18:34;0.00;0.00;0.62;0.00;0.00;0.62;13.60;9.63;;;17.70;25.00;;;;;;2250198;61;20441;-60
2020/12/04 08:21:18;0.00;0.00;0.62;0.00;0.00;0.62;12.13;9.13;;;17.70;25.00;;;;;;2250008;61;20360;-61
2020/12/04 08:24:03;0.00;0.00;0.62;0.00;0.00;0.62;11.97;8.73;;;17.60;24.90;;;;;;2250165;61;20369;-61
2020/12/04 08:27:05;0.00;0.00;0.62;0.00;0.00;0.62;14.77;9.67;;;17.60;24.90;;;;;;2250069;61;20432;-61
2020/12/04 08:30:07;0.00;0.00;0.62;0.00;0.00;0.62;10.60;8.17;;;17.60;24.90;;;;;;2250262;61;20360;-61
2020/12/04 08:33:03;0.00;0.00;0.62;0.00;0.00;0.62;12.73;10.23;;;17.50;24.90;;;;;;2250171;61;20361;-61
2020/12/04 08:35:49;0.00;0.00;0.62;0.00;0.00;0.62;12.10;9.20;;;17.50;24.90;;;;;;2249853;61;20643;-62
2020/12/04 08:38:34;0.00;0.00;0.62;0.00;0.00;0.62;17.50;10.90;;;17.50;24.90;;;;;;2250378;61;20384;-62
2020/12/04 08:41:19;0.00;0.00;0.62;0.00;0.00;0.62;17.00;10.60;;;17.40;24.80;;;;;;2250116;61;20380;-61
2020/12/04 08:44:06;0.00;0.00;0.62;0.00;0.00;0.62;19.03;10.37;;;17.40;24.80;;;;;;2250053;61;20384;-61
2020/12/04 08:46:50;0.00;0.00;0.62;0.00;0.00;0.62;14.53;10.63;;;17.40;24.80;;;;;;2250219;61;20752;-61
2020/12/04 08:49:35;0.00;0.00;0.62;0.00;0.00;0.62;14.17;10.00;;;17.30;24.70;;;;;;2249787;61;20372;-61
2020/12/04 08:52:37;0.00;0.00;0.62;0.00;0.00;0.62;16.10;9.20;;;17.30;25.30;;;;;;2250004;61;20477;-63
2020/12/04 08:55:24;0.00;0.00;0.62;0.00;0.00;0.62;15.90;10.73;;;17.30;24.90;;;;;;2249702;61;20613;-62
2020/12/04 08:58:09;0.00;0.00;0.62;0.00;0.00;0.62;17.47;10.37;;;17.30;25.00;;;;;;2249337;61;20639;-62
2020/12/04 09:00:57;0.00;0.00;0.62;0.00;0.00;0.62;15.00;10.53;;;17.30;25.00;;;;;;2249376;61;20613;-63
2020/12/04 09:03:42;0.00;0.00;0.62;0.00;0.00;0.62;15.40;11.57;;;17.20;25.00;;;;;;2249384;61;20403;-62
2020/12/04 09:06:27;0.00;0.00;0.62;0.00;0.00;0.62;15.40;10.50;;;17.20;25.00;;;;;;2249758;61;20457;-65
2020/12/04 09:09:11;0.00;0.00;0.62;0.00;0.00;0.62;13.80;9.03;;;17.20;25.10;;;;;;2249504;61;20429;-63
2020/12/04 09:11:56;0.00;0.00;0.62;0.00;0.00;0.62;17.53;11.33;;;17.20;25.10;;;;;;2249696;61;20361;-61
2020/12/04 09:14:41;0.00;0.00;0.62;0.00;0.00;0.62;20.50;12.03;;;17.20;25.20;;;;;;2249962;61;20395;-62
2020/12/04 09:17:28;0.00;0.00;0.62;0.00;0.00;0.62;17.40;10.40;;;17.10;25.20;;;;;;2246709;61;20392;-64
2020/12/04 09:20:14;0.00;0.00;0.62;0.00;0.00;0.62;16.57;11.00;;;17.10;25.20;;;;;;2249571;61;20369;-64
2020/12/04 09:22:59;0.00;0.00;0.62;0.00;0.00;0.62;15.57;9.13;;;17.10;25.30;;;;;;2249629;61;20378;-66
2020/12/04 09:25:44;0.00;0.00;0.62;0.00;0.00;0.62;17.10;10.07;;;17.10;25.30;;;;;;2249929;61;20421;-65
2020/12/04 09:28:28;0.00;0.00;0.62;0.00;0.00;0.62;14.93;10.70;;;17.10;25.40;;;;;;2250003;61;20354;-61
2020/12/04 09:31:13;0.00;0.00;0.62;0.00;0.00;0.62;17.27;10.80;;;17.10;25.40;;;;;;2249707;61;20625;-62
2020/12/04 09:33:58;0.00;0.00;0.62;0.00;0.00;0.62;14.00;9.93;;;17.10;25.50;;;;;;2249678;61;20569;-62
2020/12/04 09:36:43;0.00;0.00;0.62;0.00;0.00;0.62;15.30;9.30;;;17.10;25.50;;;;;;2250012;61;20389;-64
2020/12/04 09:39:27;0.00;0.00;0.62;0.00;0.00;0.62;13.17;9.60;;;17.10;25.50;;;;;;2249573;61;20465;-65
2020/12/04 09:42:14;0.00;0.00;0.62;0.00;0.00;0.62;18.87;11.17;;;17.20;25.70;;;;;;2249798;61;20393;-63
2020/12/04 09:44:59;0.00;0.00;0.62;0.00;0.00;0.62;12.30;9.67;;;17.20;25.70;;;;;;2249880;61;20397;-64
2020/12/04 09:47:44;0.00;0.00;0.62;0.00;0.00;0.62;15.03;9.93;;;17.20;25.70;;;;;;2249971;61;20397;-62
2020/12/04 09:50:30;0.00;0.00;0.62;0.00;0.00;0.62;17.00;10.30;;;17.20;25.70;;;;;;2249720;61;20403;-64
2020/12/04 09:53:14;0.00;0.00;0.62;0.00;0.00;0.62;13.73;9.90;;;17.20;25.80;;;;;;2249544;61;20732;-62
2020/12/04 09:55:59;0.00;0.00;0.62;0.00;0.00;0.62;15.53;9.07;;;17.30;25.80;;;;;;2249684;61;20377;-63
2020/12/04 09:58:44;0.00;0.00;0.62;0.00;0.00;0.62;14.73;9.97;;;17.30;26.30;;;;;;2249899;61;20428;-64
2020/12/04 10:01:29;0.00;0.00;0.62;0.00;0.00;0.62;15.20;9.30;;;17.30;25.80;;;;;;2249443;61;20401;-62
2020/12/04 10:04:13;0.00;0.00;0.62;0.00;0.00;0.62;13.63;10.10;;;17.30;25.80;;;;;;2249353;61;20385;-63
2020/12/04 10:06:59;0.00;0.00;0.62;0.00;0.00;0.62;13.80;9.60;;;17.30;25.80;;;;;;2249702;61;20396;-62
2020/12/04 10:09:44;0.00;0.00;0.62;0.00;0.00;0.62;14.47;9.80;;;17.30;25.80;;;;;;2249891;61;20365;-63
2020/12/04 10:12:28;0.00;0.00;0.62;0.00;0.00;0.62;15.60;9.63;;;17.40;25.90;;;;;;2249685;61;20361;-61
2020/12/04 10:15:13;0.00;0.00;0.62;0.00;0.00;0.62;11.57;8.43;;;17.40;26.40;;;;;;2249859;61;20361;-61
2020/12/04 10:17:57;0.00;0.00;0.62;0.00;0.00;0.62;12.57;8.60;;;17.40;25.90;;;;;;2249521;61;20805;-61
2020/12/04 10:20:42;0.00;0.00;0.62;0.00;0.00;0.62;14.23;8.90;;;17.40;25.80;;;;;;2249846;61;20405;-61
2020/12/04 10:23:27;0.00;0.00;0.62;0.00;0.00;0.62;14.10;8.50;;;17.40;25.70;;;;;;2249737;61;20378;-61
2020/12/04 10:26:12;0.00;0.00;0.62;0.00;0.00;0.62;16.70;8.97;;;17.40;25.70;;;;;;2249599;61;20389;-60
2020/12/04 10:28:57;0.00;0.00;0.62;0.00;0.00;0.62;16.20;8.13;;;17.40;25.80;;;;;;2246783;61;20353;-61
2020/12/04 10:31:41;0.00;0.00;0.62;0.00;0.00;0.62;14.33;8.40;;;17.40;25.90;;;;;;2249760;61;20397;-61
2020/12/04 10:34:26;0.00;0.00;0.62;0.00;0.00;0.62;11.50;8.20;;;17.40;25.90;;;;;;2249460;61;20364;-60
2020/12/04 10:37:11;0.00;0.00;0.62;0.00;0.00;0.62;14.33;9.53;;;17.40;25.90;;;;;;2249683;61;20619;-60
2020/12/04 10:39:56;0.00;0.00;0.62;0.00;0.00;0.62;11.63;7.70;;;17.50;26.00;;;;;;2249761;61;20739;-61
2020/12/04 10:42:41;0.00;0.00;0.62;0.00;0.00;0.62;12.23;6.77;;;17.50;26.00;;;;;;2249838;61;20736;-61
2020/12/04 10:45:26;0.00;0.00;0.62;0.00;0.00;0.62;8.47;7.00;;;17.50;26.00;;;;;;2249804;61;20401;-61
2020/12/04 10:48:10;0.00;0.00;0.62;0.00;0.00;0.62;12.60;7.70;;;17.50;26.00;;;;;;2249548;61;20361;-61
2020/12/04 10:50:55;0.00;0.00;0.62;0.00;0.00;0.62;11.60;7.20;;;17.60;26.10;;;;;;2249735;61;20753;-60
2020/12/04 10:53:39;0.00;0.00;0.62;0.00;0.00;0.62;14.10;7.60;;;17.60;26.10;;;;;;2246622;61;20424;-60
2020/12/04 10:56:25;0.00;0.00;0.62;0.00;0.00;0.62;11.20;7.77;;;17.60;26.10;;;;;;2249480;61;20412;-61